createdAt,value
2022-09-28T00:01:48.109Z,61.23
2022-09-28T00:07:19.433Z,61.34
2022-09-28T00:12:50.990Z,61.03
2022-09-28T00:18:22.217Z,60.92
2022-09-28T00:24:13.101Z,61.38
2022-09-28T00:29:44.268Z,61.15
2022-09-28T00:35:15.658Z,61.22
2022-09-28T00:40:46.922Z,61.02
2022-09-28T00:46:33.276Z,61.31
2022-09-28T00:52:05.729Z,61.33
2022-09-28T00:57:39.130Z,61.47
2022-09-28T01:03:10.520Z,61.41
2022-09-28T01:08:44.784Z,61.66
2022-09-28T01:14:18.404Z,62.15
2022-09-28T01:20:05.836Z,61.99
2022-09-28T01:26:16.683Z,61.44
2022-09-28T01:32:16.977Z,61.99
2022-09-28T01:37:55.343Z,61.77
2022-09-28T01:43:30.780Z,62.05
2022-09-28T01:49:31.603Z,61.77
2022-09-28T01:55:06.487Z,62.28
2022-09-28T02:00:41.631Z,61.70
2022-09-28T02:06:22.070Z,61.88
2022-09-28T02:12:00.179Z,61.77
2022-09-28T02:17:31.352Z,62.40
2022-09-28T02:23:03.435Z,62.26
2022-09-28T02:28:34.597Z,62.12
2022-09-28T02:34:05.963Z,62.18
2022-09-28T02:39:37.561Z,62.07
2022-09-28T02:45:19.079Z,62.25
2022-09-28T02:51:04.742Z,62.57
2022-09-28T02:56:50.698Z,61.52
2022-09-28T03:02:42.498Z,62.26
2022-09-28T03:08:23.306Z,61.37
2022-09-28T03:13:54.659Z,62.24
2022-09-28T03:19:33.649Z,61.74
2022-09-28T03:25:06.974Z,61.83
2022-09-28T03:30:39.579Z,61.73
2022-09-28T03:36:10.853Z,61.40
2022-09-28T03:41:43.782Z,61.98
2022-09-28T03:47:17.511Z,61.55
2022-09-28T03:52:48.758Z,62.08
2022-09-28T03:58:21.306Z,61.81
2022-09-28T04:03:59.127Z,62.49
2022-09-28T04:09:30.193Z,61.83
2022-09-28T04:15:01.389Z,61.96
2022-09-28T04:20:33.660Z,62.37
2022-09-28T04:26:24.259Z,61.47
2022-09-28T04:31:55.870Z,60.99
2022-09-28T04:37:39.125Z,61.51
2022-09-28T04:43:11.123Z,61.90
2022-09-28T04:48:42.861Z,61.96
2022-09-28T04:54:26.224Z,61.59
2022-09-28T04:59:57.002Z,61.96
2022-09-28T05:05:28.380Z,61.47
2022-09-28T05:11:28.955Z,61.26
2022-09-28T05:17:00.663Z,61.34
2022-09-28T05:22:33.158Z,61.61
2022-09-28T05:28:04.139Z,61.23
2022-09-28T05:34:12.703Z,61.84
2022-09-28T05:39:44.748Z,61.89
2022-09-28T05:45:16.009Z,61.85
2022-09-28T05:50:52.898Z,61.96
2022-09-28T05:56:25.547Z,62.16
2022-09-28T06:02:22.618Z,61.88
2022-09-28T06:07:58.012Z,61.64
2022-09-28T06:13:29.455Z,61.81
2022-09-28T06:19:01.601Z,61.72
2022-09-28T06:24:51.642Z,62.23
2022-09-28T06:30:24.496Z,61.94
2022-09-28T06:35:56.343Z,62.29
2022-09-28T06:41:41.866Z,61.96
2022-09-28T06:47:19.569Z,61.86
2022-09-28T06:53:38.537Z,61.88
2022-09-28T06:59:41.907Z,61.43
2022-09-28T07:05:14.587Z,61.51
2022-09-28T07:11:21.416Z,61.20
2022-09-28T07:17:14.053Z,61.64
2022-09-28T07:22:48.514Z,61.30
2022-09-28T07:28:25.355Z,61.02
2022-09-28T07:34:18.917Z,61.64
2022-09-28T07:40:31.598Z,61.51
2022-09-28T07:46:03.460Z,61.47
2022-09-28T07:51:37.103Z,61.65
2022-09-28T07:57:40.825Z,61.34
2022-09-28T08:03:26.043Z,61.20
2022-09-28T08:09:00.158Z,61.55
2022-09-28T08:14:52.963Z,61.44
2022-09-28T08:20:55.021Z,62.11
2022-09-28T08:26:26.342Z,62.40
2022-09-28T08:32:01.719Z,62.08
2022-09-28T08:37:39.525Z,62.30
2022-09-28T08:43:45.569Z,62.14
2022-09-28T08:49:42.263Z,62.64
2022-09-28T08:55:39.967Z,62.81
2022-09-28T09:01:16.769Z,62.31
2022-09-28T09:07:13.889Z,63.03
2022-09-28T09:13:14.022Z,62.90
2022-09-28T09:19:13.923Z,62.95
2022-09-28T09:25:26.621Z,63.59
2022-09-28T09:31:22.732Z,63.48
2022-09-28T09:37:20.858Z,63.32
2022-09-28T09:43:14.023Z,63.76
2022-09-28T09:49:09.874Z,64.09
2022-09-28T09:54:54.257Z,63.86
2022-09-28T10:00:50.321Z,65.07
2022-09-28T10:56:58.913Z,68.60
2022-09-28T11:11:03.611Z,69.60
2022-09-28T11:16:36.583Z,69.46
2022-09-28T11:22:26.339Z,70.17
2022-09-28T11:28:04.609Z,68.81
2022-09-28T11:33:43.281Z,67.66
2022-09-28T11:40:08.601Z,68.05
2022-09-28T11:45:56.035Z,67.99
2022-09-28T11:51:31.083Z,68.76
2022-09-28T11:57:04.532Z,69.18
2022-09-28T12:02:36.853Z,68.14
2022-09-28T12:08:27.731Z,68.01
2022-09-28T12:14:27.701Z,67.94
2022-09-28T12:20:04.234Z,67.51
2022-09-28T12:25:54.646Z,67.18
2022-09-28T12:31:38.622Z,67.36
2022-09-28T12:37:45.914Z,67.14
2022-09-28T12:44:01.937Z,66.85
2022-09-28T12:50:37.039Z,66.43
2022-09-28T12:55:36.238Z,66.47
2022-09-28T13:01:26.279Z,66.22
2022-09-28T13:07:06.882Z,66.18
2022-09-28T13:13:01.299Z,66.20
2022-09-28T13:18:43.041Z,65.93
2022-09-28T13:24:32.196Z,65.71
2022-09-28T13:30:06.632Z,66.15
2022-09-28T13:35:43.459Z,65.63
2022-09-28T13:41:17.115Z,66.06
2022-09-28T13:47:06.182Z,65.76
2022-09-28T13:52:37.248Z,65.34
2022-09-28T13:58:17.708Z,65.62
2022-09-28T14:04:11.892Z,65.47
2022-09-28T14:09:48.371Z,65.73
2022-09-28T14:15:37.816Z,65.38
2022-09-28T14:21:30.593Z,65.08
2022-09-28T14:27:04.833Z,67.17
2022-09-28T14:32:37.565Z,66.67
2022-09-28T14:38:38.291Z,66.71
2022-09-28T14:44:14.563Z,66.76
2022-09-28T14:49:47.838Z,65.80
2022-09-28T14:55:25.161Z,65.68
2022-09-28T15:01:09.808Z,65.67
2022-09-28T15:06:46.595Z,65.44
2022-09-28T15:12:21.195Z,65.29
2022-09-28T15:18:17.047Z,64.68
2022-09-28T15:23:48.494Z,64.76
2022-09-28T15:29:20.736Z,65.40
2022-09-28T15:34:51.729Z,64.69
2022-09-28T15:40:33.323Z,64.78
2022-09-28T15:46:13.717Z,65.56
2022-09-28T15:51:50.262Z,65.39
2022-09-28T15:57:47.823Z,64.43
2022-09-28T16:03:29.644Z,64.29
2022-09-28T16:09:00.541Z,64.98
2022-09-28T16:14:31.783Z,64.32
2022-09-28T16:20:06.203Z,65.04
2022-09-28T16:25:39.767Z,64.58
2022-09-28T16:31:14.066Z,65.66
2022-09-28T16:36:48.003Z,65.01
2022-09-28T16:42:18.918Z,65.03
2022-09-28T16:47:53.231Z,65.12
2022-09-28T16:53:43.429Z,64.71
2022-09-28T16:59:14.765Z,64.73
2022-09-28T17:04:47.839Z,64.20
2022-09-28T17:10:31.353Z,64.32
2022-09-28T17:16:10.542Z,63.87
2022-09-28T17:21:42.339Z,63.74
2022-09-28T17:27:17.233Z,63.68
2022-09-28T17:32:49.033Z,63.26
2022-09-28T17:38:20.122Z,63.53
2022-09-28T17:43:51.321Z,63.69
2022-09-28T17:49:22.830Z,63.71
2022-09-28T17:54:54.422Z,63.79
2022-09-28T18:00:28.844Z,63.87
2022-09-28T18:06:08.161Z,63.51
2022-09-28T18:11:42.462Z,63.00
2022-09-28T18:17:13.618Z,63.47
2022-09-28T18:22:44.880Z,63.21
2022-09-28T18:28:15.953Z,63.69
2022-09-28T18:33:48.498Z,63.51
2022-09-28T18:39:19.904Z,63.93
2022-09-28T18:44:51.238Z,63.40
2022-09-28T18:50:22.510Z,63.72
2022-09-28T18:55:53.454Z,63.73
2022-09-28T19:01:30.016Z,63.15
2022-09-28T19:07:02.100Z,63.12
2022-09-28T19:12:33.441Z,63.33
2022-09-28T19:18:04.747Z,63.03
2022-09-28T19:23:37.566Z,63.53
2022-09-28T19:29:10.297Z,63.54
2022-09-28T19:34:41.349Z,62.80
2022-09-28T19:40:12.231Z,63.05
2022-09-28T19:45:43.023Z,63.40
2022-09-28T19:51:14.137Z,63.29
2022-09-28T19:56:48.416Z,63.30
2022-09-28T20:02:19.976Z,62.94
2022-09-28T20:07:51.026Z,63.46
2022-09-28T20:13:22.446Z,62.97
2022-09-28T20:18:58.438Z,63.35
2022-09-28T20:24:29.376Z,63.09
2022-09-28T20:30:00.607Z,63.89
2022-09-28T20:35:33.344Z,63.86
2022-09-28T20:41:05.272Z,63.63
2022-09-28T20:46:36.897Z,63.60
2022-09-28T20:52:08.058Z,63.51
2022-09-28T20:57:39.037Z,63.27
2022-09-28T21:03:10.123Z,63.85
2022-09-28T21:08:42.492Z,64.09
2022-09-28T21:14:13.689Z,64.13
2022-09-28T21:19:45.002Z,64.21
2022-09-28T21:25:16.339Z,63.93
2022-09-28T21:30:47.560Z,63.62
2022-09-28T21:36:18.344Z,64.07
2022-09-28T21:41:49.270Z,63.79
2022-09-28T21:47:20.332Z,64.31
2022-09-28T21:52:53.282Z,63.81
2022-09-28T21:58:27.037Z,64.26
2022-09-28T22:03:58.852Z,63.95
2022-09-28T22:09:30.553Z,63.88
2022-09-28T22:15:02.083Z,63.61
2022-09-28T22:20:33.268Z,63.62
2022-09-28T22:26:12.828Z,64.29
2022-09-28T22:31:43.715Z,63.94
2022-09-28T22:37:14.602Z,63.98
2022-09-28T22:42:45.225Z,63.97
2022-09-28T22:48:16.202Z,63.69
2022-09-28T22:53:47.537Z,63.48
2022-09-28T22:59:18.939Z,63.57
2022-09-28T23:04:50.299Z,64.42
2022-09-28T23:10:21.450Z,64.02
2022-09-28T23:16:07.184Z,64.28
2022-09-28T23:21:38.499Z,63.90
2022-09-28T23:27:09.591Z,63.97
2022-09-28T23:32:40.567Z,64.36
2022-09-28T23:38:18.064Z,64.07
2022-09-28T23:43:49.518Z,64.53
2022-09-28T23:49:20.718Z,64.17
2022-09-28T23:54:51.721Z,64.44
